Terminal Aerodrome Forecast
Issued by NWS St Louis, MO

Home | Current Version | Previous Version | Text Only | Print | Product List | Glossary On
Versions: 1 2 3 4 5 6 7 8 9 10 11 12 13
000
FTUS43 KLSX 210500
TAFCOU
TAF
KCOU 210520Z 2106/2206 27008KT P6SM SCT200
     FM211000 31010KT P6SM SKC
     FM211500 34012G20KT P6SM FEW040
     FM220000 35006KT P6SM SKC=

USA.gov is the U.S. government's official web portal to all federal, state and local government web resources and services.